TimeEDT,TemperatureF,Dew PointF,Humidity,Sea Level PressureIn,VisibilityMPH,Wind Direction,Wind SpeedMPH,Gust SpeedMPH,PrecipitationIn,Events,Conditions,WindDirDegrees,DateUTC
12:51 AM,5.0,-0.9,76,29.91,10.0,Calm,Calm,-,N/A,,Clear,0,2014-03-26 04:51:00
1:51 AM,1.9,-2.0,83,29.89,10.0,Calm,Calm,-,N/A,,Clear,0,2014-03-26 05:51:00
2:51 AM,1.9,-4.0,76,29.89,10.0,Calm,Calm,-,N/A,,Clear,0,2014-03-26 06:51:00
3:21 AM,1.0,-2.0,87,29.80,10.0,Calm,Calm,-,N/A,,Mostly Cloudy,0,2014-03-26 07:21:00
3:41 AM,5.0,-0.0,80,29.81,5.0,Calm,Calm,-,N/A,,Haze,0,2014-03-26 07:41:00
3:51 AM,6.1,1.0,80,29.90,4.0,Calm,Calm,-,0.00,Snow,Light Snow,0,2014-03-26 07:51:00
4:38 AM,10.9,7.0,84,29.82,5.0,Calm,Calm,-,0.00,Snow,Light Snow,0,2014-03-26 08:38:00
4:51 AM,12.9,9.0,84,29.90,5.0,Calm,Calm,-,0.00,,Overcast,0,2014-03-26 08:51:00
5:47 AM,17.6,12.2,79,29.84,9.0,Variable,4.6,-,0.00,,Overcast,0,2014-03-26 09:47:00
5:51 AM,17.1,12.9,84,29.91,9.0,Variable,3.5,-,0.00,,Overcast,0,2014-03-26 09:51:00
5:59 AM,17.1,12.0,81,29.84,10.0,Variable,3.5,-,N/A,,Overcast,0,2014-03-26 09:59:00
6:51 AM,15.1,10.0,80,29.94,10.0,West,3.5,-,N/A,,Partly Cloudy,270,2014-03-26 10:51:00
7:15 AM,14.0,10.0,84,29.85,8.0,Variable,3.5,-,N/A,,Mostly Cloudy,0,2014-03-26 11:15:00
7:31 AM,14.0,10.0,84,29.84,1.8,Calm,Calm,-,0.00,Snow,Light Snow,0,2014-03-26 11:31:00
7:40 AM,15.1,10.0,80,29.85,2.0,West,3.5,-,0.00,Snow,Light Snow,260,2014-03-26 11:40:00
7:51 AM,15.1,10.0,80,29.94,2.0,Variable,5.8,-,0.00,Snow,Light Snow,0,2014-03-26 11:51:00
8:13 AM,15.1,10.0,80,29.87,2.5,North,-9999.0,-,0.00,Snow,Light Snow,0,2014-03-26 12:13:00
8:33 AM,14.0,9.0,80,29.86,2.0,Variable,6.9,-,0.00,Snow,Light Snow,0,2014-03-26 12:33:00
8:44 AM,15.1,9.0,77,29.86,3.0,Variable,6.9,-,0.00,Snow,Light Snow,0,2014-03-26 12:44:00
8:51 AM,14.0,9.0,80,29.95,5.0,Variable,5.8,-,0.00,,Haze,0,2014-03-26 12:51:00
8:56 AM,14.0,9.0,80,29.86,7.0,Variable,5.8,-,N/A,,Mostly Cloudy,0,2014-03-26 12:56:00
9:07 AM,14.0,9.0,80,29.86,4.0,Variable,4.6,-,N/A,,Haze,0,2014-03-26 13:07:00
9:30 AM,15.1,9.0,77,29.87,3.0,West,6.9,-,N/A,,Haze,270,2014-03-26 13:30:00
9:46 AM,14.0,8.6,79,29.87,5.0,Variable,6.9,16.1,0.00,,Haze,0,2014-03-26 13:46:00
9:51 AM,15.1,8.1,74,29.99,6.0,NW,8.1,-,0.00,,Haze,320,2014-03-26 13:51:00
10:10 AM,15.1,7.0,70,29.89,5.0,West,10.4,17.3,N/A,,Haze,260,2014-03-26 14:10:00
10:34 AM,14.0,7.0,74,29.89,2.5,West,6.9,-,0.00,Snow,Light Snow,270,2014-03-26 14:34:00
10:41 AM,15.1,7.0,70,29.89,5.0,Variable,5.8,-,0.00,,Haze,0,2014-03-26 14:41:00
10:51 AM,16.0,7.0,68,30.00,5.0,WNW,8.1,16.1,0.00,,Haze,290,2014-03-26 14:51:00
11:27 AM,17.1,8.1,68,29.88,1.8,NW,11.5,19.6,0.00,Snow,Light Snow,310,2014-03-26 15:27:00
11:46 AM,17.6,8.6,68,29.88,2.0,Variable,6.9,-,0.00,Snow,Light Snow,0,2014-03-26 15:46:00
11:51 AM,17.1,8.1,68,29.99,1.8,WNW,8.1,-,0.00,Snow,Light Snow,290,2014-03-26 15:51:00
12:08 PM,17.1,7.0,65,29.88,3.0,Variable,6.9,20.7,0.00,Snow,Light Snow,0,2014-03-26 16:08:00
12:24 PM,16.0,7.0,68,29.88,2.5,NW,10.4,19.6,0.00,Snow,Light Snow,310,2014-03-26 16:24:00
12:32 PM,17.1,6.1,62,29.88,6.0,NW,8.1,19.6,0.00,,Haze,320,2014-03-26 16:32:00
12:51 PM,19.0,6.1,57,29.98,9.0,NNW,9.2,23.0,0.00,,Overcast,330,2014-03-26 16:51:00
1:11 PM,19.0,3.9,52,29.86,10.0,WNW,10.4,21.9,N/A,,Mostly Cloudy,300,2014-03-26 17:11:00
1:51 PM,19.0,1.9,47,29.96,10.0,WNW,12.7,26.5,N/A,,Scattered Clouds,290,2014-03-26 17:51:00
2:51 PM,18.0,-2.0,41,29.96,10.0,NW,12.7,25.3,N/A,,Clear,320,2014-03-26 18:51:00
3:51 PM,17.1,-5.1,37,29.98,10.0,WNW,16.1,26.5,N/A,,Clear,290,2014-03-26 19:51:00
4:51 PM,16.0,-6.0,38,29.98,10.0,NW,15.0,25.3,N/A,,Clear,310,2014-03-26 20:51:00
5:51 PM,16.0,-5.1,39,30.01,10.0,Variable,6.9,19.6,N/A,,Clear,0,2014-03-26 21:51:00
6:51 PM,12.9,-5.1,45,30.04,10.0,WNW,10.4,18.4,N/A,,Clear,290,2014-03-26 22:51:00
7:51 PM,12.0,-4.0,49,30.07,10.0,West,8.1,-,N/A,,Clear,280,2014-03-26 23:51:00
8:51 PM,10.9,-4.0,51,30.11,10.0,Variable,5.8,-,N/A,,Clear,0,2014-03-27 00:51:00
9:51 PM,10.0,-4.0,53,30.13,10.0,Calm,Calm,-,N/A,,Clear,0,2014-03-27 01:51:00
10:51 PM,9.0,-5.1,53,30.14,10.0,Variable,3.5,-,N/A,,Clear,0,2014-03-27 02:51:00
11:51 PM,8.1,-5.1,55,30.16,10.0,Variable,4.6,-,N/A,,Clear,0,2014-03-27 03:51:00